createdAt,value
2023-03-08T00:02:12.726Z,16.30
2023-03-08T00:04:43.901Z,16.53
2023-03-08T00:07:15.291Z,16.43
2023-03-08T00:09:47.978Z,16.43
2023-03-08T00:12:20.328Z,16.23
2023-03-08T00:14:52.084Z,16.83
2023-03-08T00:17:25.333Z,15.73
2023-03-08T00:19:56.786Z,15.80
2023-03-08T00:22:28.343Z,16.80
2023-03-08T00:25:01.181Z,16.07
2023-03-08T00:27:32.386Z,16.93
2023-03-08T00:30:05.185Z,15.73
2023-03-08T00:32:36.550Z,16.00
2023-03-08T00:35:09.129Z,15.63
2023-03-08T00:37:40.586Z,16.27
2023-03-08T00:40:14.650Z,16.67
2023-03-08T00:42:46.241Z,15.90
2023-03-08T00:45:17.812Z,16.20
2023-03-08T00:47:48.848Z,16.57
2023-03-08T00:50:20.630Z,16.13
2023-03-08T00:52:51.872Z,17.73
2023-03-08T00:55:24.561Z,15.40
2023-03-08T00:57:55.500Z,17.03
2023-03-08T01:00:27.271Z,17.37
2023-03-08T01:02:59.008Z,16.87
2023-03-08T01:05:30.384Z,17.37
2023-03-08T01:08:03.793Z,17.60
2023-03-08T01:10:36.269Z,16.07
2023-03-08T01:13:08.700Z,16.80
2023-03-08T01:15:40.981Z,16.40
2023-03-08T01:18:12.523Z,16.63
2023-03-08T01:20:44.084Z,16.73
2023-03-08T01:23:15.455Z,16.07
2023-03-08T01:25:48.042Z,15.53
2023-03-08T01:28:19.442Z,14.90
2023-03-08T01:30:50.301Z,15.20
2023-03-08T01:33:21.991Z,15.27
2023-03-08T01:35:53.370Z,16.17
2023-03-08T01:38:24.559Z,16.00
2023-03-08T01:41:00.559Z,15.47
2023-03-08T01:43:33.349Z,16.50
2023-03-08T01:46:20.561Z,15.07
2023-03-08T01:48:56.050Z,15.80
2023-03-08T01:51:34.002Z,15.50
2023-03-08T01:54:09.272Z,15.10
2023-03-08T01:56:42.595Z,15.87
2023-03-08T01:59:13.855Z,15.87
2023-03-08T02:01:45.429Z,15.70
2023-03-08T02:04:16.862Z,15.97
2023-03-08T02:06:48.256Z,14.60
2023-03-08T02:09:19.375Z,15.07
2023-03-08T02:11:52.673Z,16.23
2023-03-08T02:14:23.888Z,15.83
2023-03-08T02:16:55.410Z,15.37
2023-03-08T02:19:31.500Z,16.10
2023-03-08T02:22:03.051Z,15.60
2023-03-08T02:25:04.404Z,14.93
2023-03-08T02:27:50.206Z,15.23
2023-03-08T02:30:34.687Z,15.57
2023-03-08T02:33:05.981Z,15.17
2023-03-08T02:35:39.603Z,16.90
2023-03-08T02:38:10.978Z,17.60
2023-03-08T02:40:43.655Z,17.10
2023-03-08T02:43:15.418Z,16.57
2023-03-08T02:45:46.561Z,16.93
2023-03-08T02:48:18.724Z,15.87
2023-03-08T02:50:50.238Z,16.73
2023-03-08T02:53:21.719Z,16.60
2023-03-08T02:55:54.259Z,17.07
2023-03-08T02:58:25.570Z,15.77
2023-03-08T03:00:57.030Z,17.80
2023-03-08T03:03:29.346Z,16.47
2023-03-08T03:06:00.867Z,18.10
2023-03-08T03:08:33.178Z,16.50
2023-03-08T03:11:06.042Z,15.13
2023-03-08T03:13:37.250Z,15.43
2023-03-08T03:16:10.506Z,16.03
2023-03-08T03:18:41.716Z,16.10
2023-03-08T03:21:15.762Z,17.37
2023-03-08T03:23:47.302Z,16.50
2023-03-08T03:26:22.787Z,14.97
2023-03-08T03:28:54.829Z,15.37
2023-03-08T03:31:27.281Z,14.77
2023-03-08T03:33:58.965Z,15.00
2023-03-08T03:36:31.058Z,15.13
2023-03-08T03:39:02.495Z,14.97
2023-03-08T03:41:35.269Z,14.87
2023-03-08T03:44:06.676Z,15.67
2023-03-08T03:46:38.070Z,15.93
2023-03-08T03:49:09.596Z,14.77
2023-03-08T03:51:40.714Z,14.37
2023-03-08T03:54:12.428Z,14.63
2023-03-08T03:56:45.395Z,14.73
2023-03-08T03:59:17.051Z,14.50
2023-03-08T04:01:48.497Z,15.10
2023-03-08T04:04:19.984Z,15.20
2023-03-08T04:06:51.124Z,15.13
2023-03-08T04:09:22.837Z,15.50
2023-03-08T04:11:55.734Z,14.83
2023-03-08T04:14:26.820Z,15.40
2023-03-08T04:16:58.226Z,14.30
2023-03-08T04:19:29.778Z,14.47
2023-03-08T04:22:01.571Z,14.47
2023-03-08T04:24:33.597Z,14.33
2023-03-08T04:27:05.744Z,14.83
2023-03-08T04:29:36.783Z,14.83
2023-03-08T04:32:08.954Z,14.97
2023-03-08T04:34:40.094Z,13.70
2023-03-08T04:37:12.398Z,14.73
2023-03-08T04:39:44.243Z,14.07
2023-03-08T04:42:16.929Z,13.83
2023-03-08T04:44:48.269Z,14.60
2023-03-08T04:47:19.246Z,14.43
2023-03-08T04:49:50.637Z,14.17
2023-03-08T04:52:22.502Z,13.83
2023-03-08T04:54:53.828Z,13.67
2023-03-08T04:57:26.559Z,13.73
2023-03-08T04:59:57.613Z,14.07
2023-03-08T05:02:29.292Z,14.73
2023-03-08T05:05:00.769Z,13.73
2023-03-08T05:07:32.129Z,13.23
2023-03-08T05:10:03.615Z,13.80
2023-03-08T05:12:36.907Z,13.03
2023-03-08T05:15:09.034Z,13.47
2023-03-08T05:17:40.307Z,14.10
2023-03-08T05:20:13.557Z,13.50
2023-03-08T05:22:57.630Z,13.23
2023-03-08T05:25:29.585Z,12.97
2023-03-08T05:28:02.449Z,13.90
2023-03-08T05:30:33.840Z,13.03
2023-03-08T05:33:05.279Z,13.23
2023-03-08T05:35:36.679Z,13.43
2023-03-08T05:38:07.966Z,13.90
2023-03-08T05:40:41.085Z,14.70
2023-03-08T05:43:14.241Z,15.23
2023-03-08T05:45:46.270Z,14.97
2023-03-08T05:48:17.803Z,14.30
2023-03-08T05:50:49.183Z,14.33
2023-03-08T05:53:20.578Z,13.93
2023-03-08T05:55:52.198Z,14.30
2023-03-08T05:58:25.121Z,15.37
2023-03-08T06:00:56.421Z,14.87
2023-03-08T06:03:27.578Z,13.63
2023-03-08T06:05:58.970Z,13.27
2023-03-08T06:08:30.697Z,12.93
2023-03-08T06:11:01.974Z,13.90
2023-03-08T06:13:34.452Z,14.57
2023-03-08T06:16:06.162Z,13.83
2023-03-08T06:18:39.085Z,14.03
2023-03-08T06:21:11.980Z,13.43
2023-03-08T06:23:44.150Z,12.17
2023-03-08T06:26:15.499Z,12.43
2023-03-08T06:28:48.318Z,12.60
2023-03-08T06:31:21.734Z,12.00
2023-03-08T06:33:52.756Z,11.40
2023-03-08T06:36:25.357Z,12.27
2023-03-08T06:38:56.803Z,12.67
2023-03-08T06:41:27.842Z,10.33
2023-03-08T06:44:00.463Z,11.43
2023-03-08T06:46:31.825Z,10.00
2023-03-08T06:49:04.286Z,10.13
2023-03-08T06:51:35.680Z,9.53
2023-03-08T06:54:06.936Z,10.77
2023-03-08T06:56:37.846Z,10.00
2023-03-08T06:59:10.498Z,9.93
2023-03-08T07:01:41.639Z,10.77
2023-03-08T07:04:14.718Z,10.67
2023-03-08T07:06:46.084Z,9.97
2023-03-08T07:09:17.340Z,10.17
2023-03-08T07:11:49.090Z,10.73
2023-03-08T07:14:22.217Z,11.33
2023-03-08T07:16:53.433Z,11.00
2023-03-08T07:19:24.636Z,10.50
2023-03-08T07:21:56.029Z,11.20
2023-03-08T07:24:27.538Z,11.97
2023-03-08T07:26:59.154Z,11.93
2023-03-08T07:29:32.014Z,11.27
2023-03-08T07:32:03.534Z,11.57
2023-03-08T07:34:34.894Z,11.50
2023-03-08T07:37:06.187Z,11.00
2023-03-08T07:39:37.327Z,11.53
2023-03-08T07:42:08.714Z,10.60
2023-03-08T07:44:41.203Z,11.07
2023-03-08T07:47:12.406Z,10.73
2023-03-08T07:49:44.274Z,11.40
2023-03-08T07:52:15.919Z,11.80
2023-03-08T07:54:46.995Z,11.23
2023-03-08T07:57:18.901Z,11.07
2023-03-08T07:59:53.478Z,11.33
2023-03-08T08:02:25.492Z,11.73
2023-03-08T08:04:56.662Z,11.57
2023-03-08T08:07:27.908Z,12.33
2023-03-08T08:09:59.037Z,11.40
2023-03-08T08:12:29.914Z,11.40
2023-03-08T08:15:05.789Z,11.37
2023-03-08T08:17:36.881Z,11.07
2023-03-08T08:20:10.091Z,11.00
2023-03-08T08:22:41.749Z,11.50
2023-03-08T08:25:13.466Z,11.03
2023-03-08T08:27:44.563Z,11.80
2023-03-08T08:30:18.733Z,11.63
2023-03-08T08:32:49.759Z,12.00
2023-03-08T08:35:20.929Z,11.90
2023-03-08T08:37:52.790Z,12.10
2023-03-08T08:40:23.654Z,12.27
2023-03-08T08:42:54.670Z,12.70
2023-03-08T08:45:27.528Z,12.50
2023-03-08T08:47:58.707Z,10.87
2023-03-08T08:50:29.985Z,11.37
2023-03-08T08:53:01.263Z,10.67
2023-03-08T08:55:34.692Z,11.27
2023-03-08T08:58:07.136Z,10.80
2023-03-08T09:00:40.291Z,10.77
2023-03-08T09:03:11.858Z,9.80
2023-03-08T09:05:44.475Z,10.50
2023-03-08T09:08:16.588Z,9.93
2023-03-08T09:10:47.812Z,9.33
2023-03-08T09:13:19.056Z,8.13
2023-03-08T09:15:51.350Z,9.00
2023-03-08T09:18:22.874Z,8.27
2023-03-08T09:20:54.589Z,7.70
2023-03-08T09:23:25.896Z,7.87
2023-03-08T09:26:02.422Z,7.57
2023-03-08T09:28:33.960Z,7.70
2023-03-08T09:31:13.947Z,7.87
2023-03-08T09:33:47.231Z,7.57
2023-03-08T09:36:18.930Z,7.33
2023-03-08T09:38:51.133Z,7.10
2023-03-08T09:41:52.160Z,7.17
2023-03-08T09:45:07.271Z,7.47
2023-03-08T09:47:45.485Z,7.27
2023-03-08T09:50:23.257Z,7.13
2023-03-08T09:52:59.530Z,6.30
2023-03-08T09:55:32.247Z,6.70
2023-03-08T10:00:57.170Z,6.97
2023-03-08T10:03:46.725Z,6.83
2023-03-08T10:06:22.247Z,6.50
2023-03-08T10:08:58.147Z,6.50
2023-03-08T10:11:35.403Z,6.33
2023-03-08T10:14:13.149Z,5.67
2023-03-08T10:16:48.007Z,6.20
2023-03-08T10:19:24.093Z,6.57
2023-03-08T10:21:55.649Z,6.07
2023-03-08T10:24:30.346Z,6.23
2023-03-08T10:27:10.276Z,6.30
2023-03-08T10:29:41.643Z,6.90
2023-03-08T10:32:17.070Z,6.10
2023-03-08T10:34:50.095Z,6.73
2023-03-08T10:37:25.638Z,7.00
2023-03-08T10:40:01.016Z,6.70
2023-03-08T10:42:32.738Z,6.20
2023-03-08T10:45:08.317Z,6.63
2023-03-08T10:47:40.173Z,7.47
2023-03-08T10:50:27.305Z,6.43
2023-03-08T10:52:58.760Z,6.67
2023-03-08T10:55:32.489Z,6.30
2023-03-08T10:58:07.378Z,6.70
2023-03-08T11:00:40.077Z,6.57
2023-03-08T11:03:20.187Z,6.40
2023-03-08T11:06:01.218Z,6.30
2023-03-08T11:08:34.625Z,5.80
2023-03-08T11:11:09.515Z,6.60
2023-03-08T11:13:42.880Z,6.07
2023-03-08T11:16:26.286Z,6.40
2023-03-08T11:19:10.016Z,6.40
2023-03-08T11:21:51.401Z,6.87
2023-03-08T11:24:34.096Z,6.00
2023-03-08T11:27:15.796Z,6.33
2023-03-08T11:29:55.590Z,5.70
2023-03-08T11:32:39.952Z,5.83
2023-03-08T11:35:19.603Z,5.87
2023-03-08T11:37:57.717Z,5.63
2023-03-08T11:40:32.299Z,6.27
2023-03-08T11:43:18.697Z,4.77
2023-03-08T11:45:55.946Z,4.93
2023-03-08T11:48:41.584Z,4.90
2023-03-08T11:51:17.579Z,5.13
2023-03-08T11:53:58.361Z,5.87
2023-03-08T11:56:41.501Z,5.40
2023-03-08T11:59:19.400Z,5.37
2023-03-08T12:01:53.402Z,4.97
2023-03-08T12:04:28.829Z,5.10
2023-03-08T12:07:01.364Z,5.20
2023-03-08T12:09:37.686Z,5.10
2023-03-08T12:12:14.259Z,4.77
2023-03-08T12:14:52.520Z,5.50
2023-03-08T12:17:27.902Z,7.30
2023-03-08T12:19:58.934Z,7.00
2023-03-08T12:22:42.145Z,7.47
2023-03-08T12:25:22.466Z,6.67
2023-03-08T12:27:57.483Z,6.00
2023-03-08T12:30:39.801Z,5.23
2023-03-08T12:33:15.055Z,4.70
2023-03-08T12:35:57.619Z,4.70
2023-03-08T12:38:42.064Z,4.37
2023-03-08T12:41:29.645Z,4.90
2023-03-08T12:44:09.119Z,4.70
2023-03-08T12:47:02.815Z,3.87
2023-03-08T12:49:36.938Z,4.93
2023-03-08T12:52:10.297Z,9.10
2023-03-08T12:54:41.865Z,9.37
2023-03-08T12:57:23.702Z,6.93
2023-03-08T12:59:59.825Z,5.40
2023-03-08T13:02:33.583Z,4.90
2023-03-08T13:05:32.410Z,6.27
2023-03-08T13:08:07.108Z,5.90
2023-03-08T13:10:39.762Z,5.17
2023-03-08T13:13:38.243Z,4.87
2023-03-08T13:16:23.382Z,4.30
2023-03-08T13:19:04.780Z,4.40
2023-03-08T13:21:39.380Z,4.20
2023-03-08T13:24:19.510Z,4.13
2023-03-08T13:27:04.835Z,3.90
2023-03-08T13:29:37.993Z,4.40
2023-03-08T13:32:13.573Z,3.90
2023-03-08T13:34:47.310Z,4.30
2023-03-08T13:37:26.042Z,4.10
2023-03-08T13:39:58.940Z,4.40
2023-03-08T13:42:31.981Z,3.90
2023-03-08T13:45:20.742Z,4.30
2023-03-08T13:47:52.461Z,4.53
2023-03-08T13:50:30.001Z,4.50
2023-03-08T13:53:01.661Z,4.00
2023-03-08T13:55:37.565Z,4.77
2023-03-08T13:58:09.284Z,4.20
2023-03-08T14:00:41.843Z,6.33
2023-03-08T14:03:22.789Z,7.07
2023-03-08T14:05:53.966Z,6.73
2023-03-08T14:08:26.988Z,7.57
2023-03-08T14:11:01.282Z,6.53
2023-03-08T14:13:34.968Z,5.47
2023-03-08T14:16:10.401Z,4.93
2023-03-08T14:18:44.410Z,4.53
2023-03-08T14:21:18.245Z,4.80
2023-03-08T14:23:51.973Z,4.23
2023-03-08T14:26:35.858Z,3.70
2023-03-08T14:29:16.303Z,3.87
2023-03-08T14:32:01.214Z,3.90
2023-03-08T14:34:37.024Z,3.60
2023-03-08T14:37:10.846Z,4.00
2023-03-08T14:39:44.292Z,3.80
2023-03-08T14:42:21.638Z,3.60
2023-03-08T14:44:58.744Z,3.50
2023-03-08T14:47:32.865Z,3.20
2023-03-08T14:50:05.868Z,3.50
2023-03-08T14:52:40.475Z,3.20
2023-03-08T14:55:24.809Z,3.17
2023-03-08T14:57:58.146Z,3.30
2023-03-08T15:00:30.934Z,3.13
2023-03-08T15:03:05.946Z,3.07
2023-03-08T15:05:38.944Z,3.23
2023-03-08T15:08:13.590Z,3.63
2023-03-08T15:10:45.092Z,3.20
2023-03-08T15:13:18.471Z,3.20
2023-03-08T15:15:50.622Z,3.20
2023-03-08T15:18:23.592Z,2.77
2023-03-08T15:20:55.586Z,2.90
2023-03-08T15:23:28.487Z,2.80
2023-03-08T15:26:00.316Z,3.17
2023-03-08T15:28:31.630Z,2.87
2023-03-08T15:31:03.120Z,2.83
2023-03-08T15:33:36.214Z,2.90
2023-03-08T15:36:09.957Z,2.80
2023-03-08T15:38:41.216Z,3.00
2023-03-08T15:41:14.718Z,2.60
2023-03-08T15:43:46.532Z,3.00
2023-03-08T15:46:18.707Z,2.80
2023-03-08T15:48:52.034Z,2.50
2023-03-08T15:51:24.576Z,2.20
2023-03-08T15:53:56.465Z,2.60
2023-03-08T15:56:27.741Z,2.47
2023-03-08T15:58:59.332Z,2.20
2023-03-08T16:01:31.202Z,2.20
2023-03-08T16:04:03.777Z,2.20
2023-03-08T16:06:35.473Z,2.73
2023-03-08T16:09:07.118Z,2.33
2023-03-08T16:11:38.550Z,2.83
2023-03-08T16:14:09.905Z,2.50
2023-03-08T16:16:45.473Z,2.50
2023-03-08T16:19:18.893Z,2.43
2023-03-08T16:21:50.291Z,2.67
2023-03-08T16:24:22.183Z,3.27
2023-03-08T16:26:53.561Z,2.93
2023-03-08T16:29:25.662Z,3.13
2023-03-08T16:31:56.707Z,2.40
2023-03-08T16:34:29.759Z,2.73
2023-03-08T16:37:01.639Z,3.03
2023-03-08T16:39:33.064Z,2.80
2023-03-08T16:42:04.329Z,2.83
2023-03-08T16:44:35.738Z,2.70
2023-03-08T16:47:07.052Z,2.80
2023-03-08T16:49:39.454Z,2.70
2023-03-08T16:52:10.729Z,2.67
2023-03-08T16:54:42.393Z,3.20
2023-03-08T16:57:19.712Z,2.97
2023-03-08T16:59:51.874Z,2.70
2023-03-08T17:02:24.460Z,2.83
2023-03-08T17:04:57.439Z,2.90
2023-03-08T17:07:28.485Z,3.07
2023-03-08T17:10:00.631Z,3.30
2023-03-08T17:12:31.940Z,4.97
2023-03-08T17:15:06.080Z,5.90
2023-03-08T17:17:37.858Z,5.73
2023-03-08T17:20:11.786Z,6.00
2023-03-08T17:22:43.723Z,6.60
2023-03-08T17:25:14.874Z,7.97
2023-03-08T17:27:45.952Z,8.40
2023-03-08T17:30:17.403Z,7.63
2023-03-08T17:32:48.716Z,7.47
2023-03-08T17:35:21.323Z,6.73
2023-03-08T17:37:52.616Z,5.80
2023-03-08T17:40:23.878Z,6.17
2023-03-08T17:42:57.644Z,4.77
2023-03-08T17:45:30.170Z,4.97
2023-03-08T17:48:03.646Z,4.50
2023-03-08T17:50:37.949Z,4.17
2023-03-08T17:53:13.608Z,4.60
2023-03-08T17:55:45.436Z,4.73
2023-03-08T17:58:16.906Z,4.83
2023-03-08T18:00:48.180Z,5.97
2023-03-08T18:03:19.358Z,5.33
2023-03-08T18:05:54.692Z,6.73
2023-03-08T18:08:26.044Z,6.10
2023-03-08T18:10:57.137Z,6.73
2023-03-08T18:13:28.358Z,6.67
2023-03-08T18:16:00.043Z,7.37
2023-03-08T18:18:31.673Z,7.80
2023-03-08T18:21:13.145Z,7.87
2023-03-08T18:23:45.472Z,7.50
2023-03-08T18:26:18.009Z,6.57
2023-03-08T18:28:49.750Z,5.30
2023-03-08T18:31:24.198Z,5.10
2023-03-08T18:33:55.842Z,5.07
2023-03-08T18:36:28.413Z,4.63
2023-03-08T18:38:59.781Z,5.10
2023-03-08T18:41:32.621Z,6.03
2023-03-08T18:44:04.443Z,6.53
2023-03-08T18:46:36.667Z,6.50
2023-03-08T18:49:08.861Z,6.97
2023-03-08T18:51:43.358Z,7.47
2023-03-08T18:54:18.218Z,7.70
2023-03-08T18:56:50.826Z,7.80
2023-03-08T18:59:22.769Z,7.87
2023-03-08T19:01:55.141Z,8.40
2023-03-08T19:04:26.750Z,7.93
2023-03-08T19:06:59.628Z,7.67
2023-03-08T19:09:31.328Z,7.40
2023-03-08T19:12:03.938Z,7.70
2023-03-08T19:14:35.692Z,7.40
2023-03-08T19:17:06.957Z,7.83
2023-03-08T19:19:38.316Z,8.43
2023-03-08T19:22:11.768Z,9.60
2023-03-08T19:24:43.177Z,10.93
2023-03-08T19:27:14.574Z,11.03
2023-03-08T19:29:47.027Z,11.03
2023-03-08T19:32:18.771Z,11.40
2023-03-08T19:34:50.136Z,11.30
2023-03-08T19:37:22.337Z,11.37
2023-03-08T19:39:53.829Z,11.03
2023-03-08T19:42:25.559Z,11.17
2023-03-08T19:44:56.914Z,10.83
2023-03-08T19:47:27.998Z,10.70
2023-03-08T19:49:59.401Z,10.30
2023-03-08T19:52:31.719Z,9.30
2023-03-08T19:55:06.139Z,10.47
2023-03-08T19:57:38.530Z,9.83
2023-03-08T20:00:10.872Z,9.77
2023-03-08T20:02:46.681Z,10.27
2023-03-08T20:05:19.564Z,11.60
2023-03-08T20:07:52.403Z,11.30
2023-03-08T20:10:24.770Z,11.40
2023-03-08T20:12:56.430Z,11.03
2023-03-08T20:15:29.772Z,10.37
2023-03-08T20:18:02.102Z,10.37
2023-03-08T20:20:34.518Z,10.80
2023-03-08T20:23:08.887Z,9.80
2023-03-08T20:25:41.709Z,9.80
2023-03-08T20:28:14.825Z,9.33
2023-03-08T20:30:49.332Z,9.80
2023-03-08T20:33:22.406Z,8.97
2023-03-08T20:36:01.540Z,9.97
2023-03-08T20:38:36.671Z,9.30
2023-03-08T20:41:13.590Z,9.90
2023-03-08T20:57:26.324Z,9.07
2023-03-08T20:59:58.115Z,9.33
2023-03-08T21:02:30.108Z,9.60
2023-03-08T21:05:02.162Z,10.10
2023-03-08T21:07:52.340Z,9.90
2023-03-08T21:16:25.797Z,9.10
2023-03-08T21:19:15.604Z,9.33
2023-03-08T21:21:48.027Z,9.50
2023-03-08T21:24:23.762Z,9.97
2023-03-08T21:26:56.486Z,9.30
2023-03-08T21:29:29.138Z,9.63
2023-03-08T21:32:00.520Z,9.93
2023-03-08T21:34:31.920Z,10.30
2023-03-08T21:37:03.203Z,9.87
2023-03-08T21:39:34.411Z,9.63
2023-03-08T21:42:07.448Z,8.93
2023-03-08T21:44:38.969Z,10.10
2023-03-08T21:47:10.673Z,9.53
2023-03-08T21:49:44.638Z,9.80
2023-03-08T21:52:16.293Z,10.60
2023-03-08T21:54:47.416Z,9.53
2023-03-08T21:57:20.094Z,10.07
2023-03-08T22:02:45.912Z,9.50
2023-03-08T22:05:18.145Z,9.40
2023-03-08T22:07:49.538Z,9.47
2023-03-08T22:10:21.321Z,9.20
2023-03-08T22:12:56.242Z,9.37
2023-03-08T22:15:27.821Z,9.20
2023-03-08T22:17:59.220Z,9.93
2023-03-08T22:20:30.526Z,9.27
2023-03-08T22:23:02.103Z,9.63
2023-03-08T22:25:33.525Z,10.77
2023-03-08T22:28:06.026Z,10.37
2023-03-08T22:30:37.406Z,10.87
2023-03-08T22:33:08.997Z,10.67
2023-03-08T22:35:40.291Z,10.63
2023-03-08T22:38:11.619Z,10.97
2023-03-08T22:40:44.206Z,11.00
2023-03-08T22:43:16.981Z,11.37
2023-03-08T22:45:48.201Z,10.97
2023-03-08T22:48:19.317Z,11.20
2023-03-08T22:50:58.741Z,10.90
2023-03-08T22:53:40.180Z,10.90
2023-03-08T22:56:13.442Z,11.43
2023-03-08T22:58:46.269Z,11.07
2023-03-08T23:01:18.472Z,11.00
2023-03-08T23:03:50.709Z,11.10
2023-03-08T23:06:22.850Z,11.13
2023-03-08T23:08:54.287Z,10.60
2023-03-08T23:11:25.586Z,11.10
2023-03-08T23:13:58.609Z,10.30
2023-03-08T23:16:30.326Z,11.30
2023-03-08T23:19:03.511Z,11.37
2023-03-08T23:21:36.776Z,10.80
2023-03-08T23:24:09.051Z,10.70
2023-03-08T23:26:40.913Z,10.90
2023-03-08T23:29:13.644Z,11.13
2023-03-08T23:31:47.313Z,11.83
2023-03-08T23:34:18.495Z,10.97
2023-03-08T23:36:49.999Z,10.93
2023-03-08T23:39:22.357Z,11.20
2023-03-08T23:41:53.425Z,10.93
2023-03-08T23:44:29.208Z,11.30
2023-03-08T23:47:02.441Z,11.37
2023-03-08T23:49:33.411Z,10.50
2023-03-08T23:52:04.894Z,10.70
2023-03-08T23:55:09.994Z,11.37
2023-03-08T23:57:41.401Z,10.77
